Time;durP1;ratioP1;P1;durP2;ratioP2;P2;SDS_P1;SDS_P2;PMS_P1;PMS_P2;Temp;Humidity;BMP_temperature;BMP_pressure;BME280_temperature;BME280_humidity;BME280_pressure;Samples;Min_cycle;Max_cycle;Signal;HPM_P1;HPM_P2
2023/06/22 00:00:47;;;;;;;24.35;16.98;;;;;;;18.99;88.91;95192.63;5014225;28;20192;-90
2023/06/22 00:03:13;;;;;;;26.98;16.77;;;;;;;18.87;89.35;95167.16;5013968;28;20180;-90
2023/06/22 00:05:38;;;;;;;23.42;15.38;;;;;;;18.77;88.90;95151.88;5015766;28;20180;-90
2023/06/22 00:08:04;;;;;;;28.77;16.95;;;;;;;18.81;88.49;95160.97;5015999;28;20180;-90
2023/06/22 00:10:30;;;;;;;29.30;16.30;;;;;;;19.39;88.68;95256.19;5014768;28;20581;-90
2023/06/22 00:12:55;;;;;;;22.30;15.73;;;;;;;19.08;88.61;95206.28;5015076;28;20179;-90
2023/06/22 00:15:21;;;;;;;20.55;14.90;;;;;;;18.92;89.11;95194.69;5015561;28;20165;-91
2023/06/22 00:17:46;;;;;;;24.25;15.38;;;;;;;18.99;89.64;95208.63;5014363;28;20180;-90
2023/06/22 00:20:12;;;;;;;19.33;15.18;;;;;;;19.04;89.37;95206.00;5014441;28;20215;-91
2023/06/22 00:22:38;;;;;;;20.95;16.05;;;;;;;18.72;89.87;95157.16;5014443;28;20176;-91
2023/06/22 00:25:07;;;;;;;21.40;13.95;;;;;;;18.92;89.62;95202.69;5014421;28;20255;-91
2023/06/22 00:27:32;;;;;;;20.33;13.77;;;;;;;18.69;89.67;95158.47;5014618;28;20653;-91
2023/06/22 00:29:57;;;;;;;22.52;14.27;;;;;;;18.69;89.85;95155.81;5014279;28;20169;-90
2023/06/22 00:32:23;;;;;;;22.00;12.52;;;;;;;18.78;89.71;95172.94;5014531;28;20208;-90
2023/06/22 00:34:48;;;;;;;21.65;12.68;;;;;;;18.71;89.78;95160.88;5014345;28;20287;-91
2023/06/22 00:37:14;;;;;;;20.00;13.65;;;;;;;18.73;89.78;95156.91;5014296;28;20585;-91
2023/06/22 00:39:39;;;;;;;17.33;13.10;;;;;;;18.92;89.90;95194.69;5014228;28;20188;-92
2023/06/22 00:42:05;;;;;;;17.60;12.82;;;;;;;18.81;89.55;95174.31;5014212;28;20171;-91
2023/06/22 00:44:30;;;;;;;17.63;13.15;;;;;;;18.53;89.49;95131.88;5013965;28;20177;-91
2023/06/22 00:46:55;;;;;;;20.55;12.60;;;;;;;18.61;89.38;95144.78;5014012;28;20173;-91
2023/06/22 00:49:21;;;;;;;18.23;13.02;;;;;;;18.88;89.60;95185.56;5013976;28;20680;-91
2023/06/22 00:51:47;;;;;;;15.95;11.43;;;;;;;18.85;89.28;95184.22;5014181;28;20256;-91
2023/06/22 00:54:13;;;;;;;16.13;12.07;;;;;;;18.57;89.52;95149.03;5015153;28;20247;-91
2023/06/22 00:56:41;;;;;;;17.33;10.88;;;;;;;18.62;89.41;95157.88;5013757;28;20654;-90
2023/06/22 00:59:06;;;;;;;18.42;11.13;;;;;;;18.64;89.53;95170.97;5013617;28;20207;-91
2023/06/22 01:01:34;;;;;;;18.70;11.50;;;;;;;18.42;89.30;95155.78;5013589;28;20247;-91
2023/06/22 01:04:00;;;;;;;14.90;10.13;;;;;;;18.19;90.03;95136.63;5013711;28;20246;-91
2023/06/22 01:06:38;;;;;;;15.20;10.98;;;;;;;18.62;90.17;95199.75;5013626;28;20269;-91
2023/06/22 01:09:15;;;;;;;16.35;9.82;;;;;;;18.44;89.48;95159.00;5013831;28;20649;-91
2023/06/22 01:11:54;;;;;;;11.48;8.88;;;;;;;18.61;88.88;95192.78;5015000;28;20203;-91
2023/06/22 01:14:28;;;;;;;15.63;9.43;;;;;;;18.42;88.83;95174.44;5029921;28;20160;-91
2023/06/22 01:16:55;;;;;;;15.25;8.73;;;;;;;18.54;88.74;95192.16;5013388;28;20172;-90
2023/06/22 01:19:48;;;;;;;11.88;8.25;;;;;;;18.68;88.57;95212.09;5013366;28;20222;-91
2023/06/22 01:22:16;;;;;;;12.85;8.60;;;;;;;18.54;88.08;95187.63;5013359;28;20168;-91
2023/06/22 01:24:42;;;;;;;10.52;8.02;;;;;;;18.89;88.02;95242.41;5013405;28;20163;-92
2023/06/22 01:27:22;;;;;;;11.13;8.52;;;;;;;18.84;88.39;95245.84;5029573;28;20164;-91
2023/06/22 01:30:00;;;;;;;12.23;8.93;;;;;;;18.42;88.43;95201.09;5014186;28;20164;-91
2023/06/22 01:32:30;;;;;;;13.77;8.23;;;;;;;18.42;88.66;95217.09;5013280;28;20198;-91
2023/06/22 01:34:57;;;;;;;10.40;8.15;;;;;;;18.29;89.38;95204.19;5014483;28;20218;-91
2023/06/22 01:37:23;;;;;;;11.98;7.68;;;;;;;18.44;89.45;95219.53;5013282;28;20168;-92
2023/06/22 01:39:50;;;;;;;10.82;7.32;;;;;;;18.39;89.11;95214.97;5014883;28;20161;-93
2023/06/22 01:42:16;;;;;;;12.13;7.18;;;;;;;18.05;89.15;95168.22;5013430;28;20560;-93
2023/06/22 01:44:43;;;;;;;12.50;7.75;;;;;;;18.51;88.95;95251.34;5013370;28;20165;-92
2023/06/22 01:47:08;;;;;;;13.10;8.00;;;;;;;18.00;88.87;95165.47;5013133;28;20175;-93
2023/06/22 01:49:34;;;;;;;9.93;8.48;;;;;;;18.29;89.25;95214.03;5013280;28;20180;-92
2023/06/22 01:52:00;;;;;;;10.18;7.45;;;;;;;17.91;89.24;95161.63;5012953;28;20183;-92
2023/06/22 01:54:25;;;;;;;12.70;7.85;;;;;;;18.14;88.73;95212.00;5012078;28;20240;-92
2023/06/22 01:56:50;;;;;;;11.65;7.82;;;;;;;17.77;89.26;95145.22;5029390;28;20168;-92
2023/06/22 01:59:37;;;;;;;14.73;9.17;;;;;;;18.53;89.38;95270.56;5027975;28;20916;-92
2023/06/22 02:02:14;;;;;;;9.35;7.75;;;;;;;18.23;89.22;95215.84;5029033;28;20224;-90
2023/06/22 02:04:48;;;;;;;24.73;8.32;;;;;;;18.58;88.87;95284.00;5012375;28;20160;-90
2023/06/22 02:07:17;;;;;;;13.23;7.75;;;;;;;18.42;88.74;95265.09;5012658;28;20536;-91
2023/06/22 02:09:45;;;;;;;12.27;8.75;;;;;;;18.02;88.85;95214.78;5012674;28;20242;-91
2023/06/22 02:12:13;;;;;;;12.43;9.18;;;;;;;18.45;89.27;95293.94;5012416;28;20196;-91
2023/06/22 02:14:40;;;;;;;13.48;9.45;;;;;;;18.06;89.45;95229.25;5012006;28;20661;-90
2023/06/22 02:17:10;;;;;;;18.70;10.40;;;;;;;17.79;90.17;95190.25;5011818;28;20176;-90
2023/06/22 02:19:41;;;;;;;18.92;9.27;;;;;;;17.67;90.29;95166.41;5012347;28;20275;-90
2023/06/22 02:22:06;;;;;;;12.88;8.75;;;;;;;17.71;90.71;95172.84;5010686;28;20278;-90
2023/06/22 02:24:33;;;;;;;14.90;9.63;;;;;;;17.82;90.26;95185.22;5011680;28;20638;-90
2023/06/22 02:26:59;;;;;;;18.08;9.85;;;;;;;18.13;90.15;95231.72;5011680;28;20168;-91
2023/06/22 02:29:25;;;;;;;15.80;9.25;;;;;;;17.63;89.65;95149.31;5011199;28;20184;-90
2023/06/22 02:31:50;;;;;;;12.40;9.20;;;;;;;17.84;90.56;95187.66;5011647;28;20169;-90
2023/06/22 02:34:18;;;;;;;15.05;9.30;;;;;;;17.95;90.02;95205.38;5012393;28;20183;-90
2023/06/22 02:36:50;;;;;;;24.10;10.00;;;;;;;17.69;90.33;95164.31;5012960;28;20557;-90
2023/06/22 02:39:19;;;;;;;18.42;9.50;;;;;;;18.32;90.17;95264.19;5012895;28;20642;-86
2023/06/22 02:41:44;;;;;;;18.73;9.68;;;;;;;17.85;90.06;95191.94;5013708;28;20279;-95
2023/06/22 02:44:10;;;;;;;13.48;9.00;;;;;;;17.82;90.23;95187.09;5012767;28;20259;-95
2023/06/22 02:46:36;;;;;;;21.17;11.35;;;;;;;18.29;90.65;95265.50;5012498;28;20183;-95
2023/06/22 02:49:01;;;;;;;15.43;9.63;;;;;;;18.04;90.72;95226.00;5029391;28;20208;-94
2023/06/22 02:51:27;;;;;;;16.70;9.63;;;;;;;18.01;90.79;95221.19;5012851;28;20168;-95
2023/06/22 02:53:57;;;;;;;12.48;9.27;;;;;;;17.86;90.63;95199.69;5012271;28;20366;-95
2023/06/22 02:56:25;;;;;;;16.52;8.70;;;;;;;17.85;90.74;95191.94;5012510;28;20239;-95
2023/06/22 02:58:51;;;;;;;12.20;9.45;;;;;;;18.06;90.91;95229.25;5012248;28;20176;-94
2023/06/22 03:01:16;;;;;;;12.95;9.40;;;;;;;17.83;90.78;95191.38;5012653;28;20590;-95
2023/06/22 03:03:42;;;;;;;13.85;9.18;;;;;;;17.73;90.81;95175.28;5012137;28;20176;-94
2023/06/22 03:06:07;;;;;;;13.90;10.13;;;;;;;17.93;91.03;95200.28;5011821;28;20181;-94
2023/06/22 03:08:32;;;;;;;14.02;9.68;;;;;;;17.61;90.93;95151.41;5012180;28;20177;-95
2023/06/22 03:10:58;;;;;;;20.33;10.35;;;;;;;18.16;90.99;95236.56;5013218;28;20270;-95
2023/06/22 03:13:23;;;;;;;14.52;9.82;;;;;;;18.22;90.89;95248.06;5012231;28;20172;-95
2023/06/22 03:15:49;;;;;;;20.55;10.77;;;;;;;18.03;90.47;95224.41;5012234;28;20168;-95
2023/06/22 03:18:15;;;;;;;24.83;10.05;;;;;;;18.24;90.29;95256.63;5012453;28;20168;-95
2023/06/22 03:20:41;;;;;;;18.48;10.43;;;;;;;18.08;90.27;95247.63;5011964;28;20199;-94
2023/06/22 03:23:06;;;;;;;16.13;10.27;;;;;;;17.34;90.69;95130.00;5011965;28;20181;-91
2023/06/22 03:25:33;;;;;;;17.38;10.07;;;;;;;18.42;91.21;95301.66;5010261;28;20168;-83
2023/06/22 03:28:00;;;;;;;18.08;9.57;;;;;;;18.32;91.30;95267.66;5011159;28;20172;-82
2023/06/22 03:30:26;;;;;;;19.15;9.82;;;;;;;18.46;90.54;95284.06;5011961;28;20164;-90
2023/06/22 03:32:51;;;;;;;21.88;10.20;;;;;;;18.40;89.74;95258.41;5010904;28;20261;-89
2023/06/22 03:35:17;;;;;;;17.55;9.60;;;;;;;18.55;89.93;95263.91;5010828;28;20245;-88
2023/06/22 03:37:42;;;;;;;14.48;9.75;;;;;;;18.81;89.16;95289.03;5026780;28;20172;-87
2023/06/22 03:40:08;;;;;;;14.50;9.93;;;;;;;18.87;88.49;95288.00;5011085;28;20562;-82
2023/06/22 03:42:37;;;;;;;13.05;8.85;;;;;;;19.14;88.24;95320.84;5011229;28;20223;-86
2023/06/22 03:45:03;;;;;;;10.15;8.63;;;;;;;19.08;86.60;95294.38;5008688;28;20172;-87
2023/06/22 03:47:29;;;;;;;12.65;8.05;;;;;;;19.08;86.09;95294.38;5010083;28;20172;-87
2023/06/22 03:49:54;;;;;;;12.05;8.38;;;;;;;19.37;85.51;95329.63;5011395;28;20218;-89
2023/06/22 03:52:21;;;;;;;13.88;8.93;;;;;;;19.17;85.52;95285.66;5012005;28;20184;-87
2023/06/22 03:54:47;;;;;;;12.38;8.40;;;;;;;19.33;85.11;95293.78;5010682;28;20243;-87
2023/06/22 03:57:12;;;;;;;17.33;8.48;;;;;;;19.42;85.43;95276.25;5012323;28;20157;-82
2023/06/22 03:59:38;;;;;;;12.00;7.82;;;;;;;19.81;83.65;95331.03;5011918;28;20219;-84
2023/06/22 04:02:03;;;;;;;18.83;8.57;;;;;;;19.21;83.68;95246.69;5012018;28;20188;-85
2023/06/22 04:04:29;;;;;;;15.35;7.85;;;;;;;19.55;84.71;95289.97;5010427;28;20185;-85
2023/06/22 04:06:54;;;;;;;23.60;9.68;;;;;;;19.90;85.21;95334.03;5011822;28;20149;-84
2023/06/22 04:09:21;;;;;;;15.40;7.32;;;;;;;19.62;85.60;95268.41;5011564;28;20219;-84
2023/06/22 04:11:46;;;;;;;15.90;8.95;;;;;;;19.90;84.85;95275.25;5026297;28;20188;-85
2023/06/22 04:14:12;;;;;;;13.45;8.20;;;;;;;20.08;84.94;95276.69;5011327;28;20168;-84
2023/06/22 04:16:37;;;;;;;10.10;7.80;;;;;;;20.11;83.04;95255.59;5011666;28;20182;-85
2023/06/22 04:19:03;;;;;;;11.68;7.82;;;;;;;20.21;82.93;95241.47;5014275;28;20239;-84
2023/06/22 04:21:28;;;;;;;9.50;7.40;;;;;;;20.60;80.49;95268.63;5014294;28;20196;-86
2023/06/22 04:23:53;;;;;;;15.05;8.65;;;;;;;20.86;81.27;95267.66;5029931;28;20263;-92
2023/06/22 04:26:20;;;;;;;11.70;7.90;;;;;;;21.23;79.03;95298.78;5014771;28;20215;-86
2023/06/22 04:28:51;;;;;;;14.23;8.32;;;;;;;21.31;78.22;95283.00;5014621;28;20199;-84
2023/06/22 04:31:17;;;;;;;22.75;8.40;;;;;;;21.67;77.93;95310.59;5014759;28;20259;-84
2023/06/22 04:33:42;;;;;;;16.75;8.43;;;;;;;21.56;77.58;95282.19;5014505;28;20260;-83
2023/06/22 04:36:07;;;;;;;16.02;8.02;;;;;;;22.08;77.76;95319.44;5014493;28;20200;-83
2023/06/22 04:38:33;;;;;;;12.68;7.18;;;;;;;22.25;75.61;95327.16;5012990;28;20601;-83
2023/06/22 04:41:01;;;;;;;13.05;8.20;;;;;;;22.25;74.73;95291.47;5014800;28;20238;-84
2023/06/22 04:43:30;;;;;;;16.70;8.73;;;;;;;22.34;74.37;95287.16;5014656;28;20177;-82
2023/06/22 04:45:55;;;;;;;12.95;7.82;;;;;;;22.54;72.89;95319.31;5014184;28;20169;-82
2023/06/22 04:48:21;;;;;;;11.63;7.35;;;;;;;22.73;72.12;95333.72;5013651;28;20168;-80
2023/06/22 04:50:46;;;;;;;11.18;7.72;;;;;;;22.85;73.29;95311.94;5013700;28;20204;-80
2023/06/22 04:53:12;;;;;;;12.82;7.95;;;;;;;23.16;72.05;95332.19;5013433;28;20595;-79
2023/06/22 04:55:41;;;;;;;12.30;7.45;;;;;;;23.36;70.91;95339.31;5012579;28;20210;-78
2023/06/22 04:58:07;;;;;;;23.27;8.13;;;;;;;23.51;71.20;95322.31;5012860;28;20212;-79
2023/06/22 05:00:36;;;;;;;10.63;6.90;;;;;;;23.82;68.34;95339.00;5013707;28;20201;-80
2023/06/22 05:03:03;;;;;;;12.38;8.75;;;;;;;24.06;67.77;95346.03;5011923;28;20176;-79
2023/06/22 05:05:29;;;;;;;9.25;7.30;;;;;;;24.39;68.26;95332.81;5013228;28;20171;-79
2023/06/22 05:07:59;;;;;;;11.65;9.18;;;;;;;24.69;66.00;95342.47;5013811;28;20168;-80
2023/06/22 05:10:25;;;;;;;13.35;10.02;;;;;;;24.90;64.71;95337.66;5013362;28;20259;-79
2023/06/22 05:12:53;;;;;;;14.70;10.52;;;;;;;25.27;64.29;95339.59;5013160;28;20255;-77
2023/06/22 05:15:26;;;;;;;18.85;10.07;;;;;;;25.57;61.53;95333.75;5012949;28;20234;-78
2023/06/22 05:17:52;;;;;;;11.35;9.30;;;;;;;25.74;59.95;95330.56;5012475;28;20176;-78
2023/06/22 05:20:18;;;;;;;14.25;10.55;;;;;;;25.84;59.40;95335.78;5013276;28;20218;-78
2023/06/22 05:22:44;;;;;;;12.02;9.77;;;;;;;26.08;59.87;95314.84;5013504;28;20177;-78
2023/06/22 05:25:10;;;;;;;10.68;8.45;;;;;;;26.61;59.46;95339.56;5013383;28;20219;-78
2023/06/22 05:27:39;;;;;;;11.00;8.07;;;;;;;27.01;58.39;95329.84;5013463;28;20183;-79
2023/06/22 05:30:06;;;;;;;12.57;8.30;;;;;;;27.51;58.24;95339.84;5012393;28;20265;-78
2023/06/22 05:32:32;;;;;;;11.90;7.95;;;;;;;27.94;56.92;95332.06;5013606;28;20171;-79
2023/06/22 05:34:57;;;;;;;9.88;8.30;;;;;;;28.28;56.82;95347.78;5013480;28;20180;-79
2023/06/22 05:37:23;;;;;;;16.55;8.07;;;;;;;28.64;55.30;95340.28;5013596;28;20225;-79
2023/06/22 05:39:48;;;;;;;13.65;7.53;;;;;;;28.95;52.85;95344.91;5028723;28;20570;-79
2023/06/22 05:42:13;;;;;;;9.90;7.63;;;;;;;29.07;51.14;95361.34;5013273;28;20208;-79
2023/06/22 05:44:40;;;;;;;9.10;7.43;;;;;;;29.30;51.67;95357.44;5013325;28;20741;-79
2023/06/22 05:47:06;;;;;;;10.10;7.80;;;;;;;29.63;52.29;95361.31;5012212;28;20617;-80
2023/06/22 05:49:32;;;;;;;16.23;8.55;;;;;;;29.75;51.31;95357.16;5013331;28;20314;-80
2023/06/22 05:51:59;;;;;;;11.52;7.75;;;;;;;29.77;51.49;95371.19;5013181;28;20172;-80
2023/06/22 05:54:24;;;;;;;12.95;7.55;;;;;;;29.39;50.82;95349.31;5012832;28;20219;-80
2023/06/22 05:56:50;;;;;;;9.10;7.85;;;;;;;29.33;52.22;95356.78;5013063;28;20184;-80
2023/06/22 05:59:15;;;;;;;11.30;8.80;;;;;;;29.35;51.76;95365.41;5013070;28;20195;-80
2023/06/22 06:01:41;;;;;;;11.55;8.52;;;;;;;29.13;51.23;95360.09;5012928;28;20192;-80
2023/06/22 06:04:09;;;;;;;16.83;10.50;;;;;;;28.96;50.91;95360.06;5012947;28;20183;-80
2023/06/22 06:06:36;;;;;;;16.67;9.00;;;;;;;28.70;51.15;95362.66;5012905;28;20185;-80
2023/06/22 06:09:03;;;;;;;14.60;9.10;;;;;;;28.52;52.87;95359.88;5012887;28;20180;-80
2023/06/22 06:11:28;;;;;;;15.23;9.27;;;;;;;28.43;52.91;95355.50;5012998;28;20200;-80
2023/06/22 06:13:54;;;;;;;13.73;9.85;;;;;;;28.47;52.20;95351.06;5011429;28;20537;-80
2023/06/22 06:16:19;;;;;;;15.85;8.82;;;;;;;28.65;53.73;95330.25;5012716;28;20181;-80
2023/06/22 06:18:45;;;;;;;22.17;9.43;;;;;;;28.76;52.41;95337.00;5012782;28;20172;-80
2023/06/22 06:21:10;;;;;;;9.63;7.88;;;;;;;29.00;52.49;95350.16;5012532;28;20222;-80
2023/06/22 06:23:36;;;;;;;18.90;8.10;;;;;;;29.19;52.38;95337.13;5012421;28;20204;-81
2023/06/22 06:26:01;;;;;;;12.40;7.80;;;;;;;29.30;54.49;95335.72;5012589;28;20175;-81
2023/06/22 06:28:27;;;;;;;17.67;8.77;;;;;;;29.36;51.82;95348.03;5012441;28;20184;-81
2023/06/22 06:30:52;;;;;;;17.48;8.30;;;;;;;29.42;52.23;95354.91;5009505;28;20591;-81
2023/06/22 06:33:18;;;;;;;10.57;7.80;;;;;;;29.53;52.56;95344.53;5012181;28;20211;-82
2023/06/22 06:35:43;;;;;;;14.80;7.75;;;;;;;29.57;52.42;95312.94;5011590;28;20168;-86
2023/06/22 06:38:08;;;;;;;10.57;7.32;;;;;;;29.68;50.21;95327.75;5010652;28;20176;-84
2023/06/22 06:40:34;;;;;;;10.07;8.07;;;;;;;29.92;50.64;95340.88;5012460;28;20184;-85
2023/06/22 06:42:59;;;;;;;11.95;8.10;;;;;;;29.83;49.59;95340.88;5011434;28;20634;-82
2023/06/22 06:45:28;;;;;;;11.02;8.05;;;;;;;29.42;49.42;95316.91;5012760;28;20159;-82
2023/06/22 06:47:54;;;;;;;11.15;7.90;;;;;;;29.51;50.66;95331.28;5013246;28;20204;-81
2023/06/22 06:50:19;;;;;;;18.52;8.60;;;;;;;29.69;53.50;95334.00;5011974;28;20291;-84
2023/06/22 06:52:45;;;;;;;13.50;7.70;;;;;;;29.71;52.31;95316.28;5011624;28;20266;-84
2023/06/22 06:55:11;;;;;;;11.00;7.13;;;;;;;29.82;51.65;95298.56;5011932;28;20184;-84
2023/06/22 06:57:38;;;;;;;11.38;7.45;;;;;;;29.96;52.08;95282.09;5010719;28;20211;-85
2023/06/22 07:00:11;;;;;;;10.60;7.95;;;;;;;30.50;50.78;95307.66;5010447;28;20188;-84
2023/06/22 07:02:38;;;;;;;11.30;7.80;;;;;;;30.74;49.48;95323.41;5011782;28;20183;-80
2023/06/22 07:05:04;;;;;;;9.98;7.47;;;;;;;30.74;49.72;95307.91;5012014;28;20256;-81
2023/06/22 07:07:30;;;;;;;12.02;7.38;;;;;;;30.95;48.35;95328.91;5012591;28;20178;-81
2023/06/22 07:09:55;;;;;;;11.48;8.30;;;;;;;30.87;48.07;95286.25;5012552;28;20169;-81
2023/06/22 07:12:21;;;;;;;16.08;8.13;;;;;;;31.23;47.84;95330.03;5012655;28;20168;-82
2023/06/22 07:14:46;;;;;;;15.88;7.90;;;;;;;31.32;48.06;95324.53;5012152;28;20164;-81
2023/06/22 07:17:12;;;;;;;14.95;8.35;;;;;;;31.43;49.62;95307.50;5010569;28;20180;-85
2023/06/22 07:19:37;;;;;;;16.58;8.30;;;;;;;31.75;50.08;95324.25;5009646;28;20182;-83
2023/06/22 07:22:03;;;;;;;11.52;7.00;;;;;;;31.94;49.26;95326.47;5008307;28;20303;-80
2023/06/22 07:24:28;;;;;;;17.77;7.32;;;;;;;31.81;47.55;95301.13;5012221;28;20176;-81
2023/06/22 07:26:58;;;;;;;11.57;8.52;;;;;;;31.66;47.37;95305.25;5011295;28;20202;-83
2023/06/22 07:29:26;;;;;;;13.57;7.82;;;;;;;31.55;47.66;95336.72;5007865;28;20188;-89
2023/06/22 07:31:52;;;;;;;15.13;7.30;;;;;;;31.41;49.87;95303.50;5010610;28;20172;-85
2023/06/22 07:34:18;;;;;;;11.00;7.40;;;;;;;31.67;50.22;95323.19;5010733;28;20177;-85
2023/06/22 07:36:44;;;;;;;9.20;8.20;;;;;;;31.75;47.67;95314.13;5010403;28;20173;-84
2023/06/22 07:39:11;;;;;;;17.67;8.02;;;;;;;31.37;51.41;95284.34;5011611;28;20188;-83
2023/06/22 07:41:37;;;;;;;15.57;8.07;;;;;;;31.83;49.11;95305.09;5011034;28;20545;-79
2023/06/22 07:44:03;;;;;;;10.57;8.07;;;;;;;32.19;49.72;95328.97;5011635;28;20178;-85
2023/06/22 07:46:30;;;;;;;11.57;7.78;;;;;;;32.14;48.94;95295.66;5011317;28;20181;-80
2023/06/22 07:48:59;;;;;;;9.48;7.80;;;;;;;32.50;47.27;95333.16;5011087;28;20184;-82
2023/06/22 07:51:25;;;;;;;11.13;6.80;;;;;;;32.01;49.56;95299.47;5011174;28;20165;-83
2023/06/22 07:53:51;;;;;;;10.82;7.60;;;;;;;31.76;50.16;95304.84;5012315;28;20224;-80
2023/06/22 07:56:20;;;;;;;8.68;7.43;;;;;;;31.72;50.33;95328.44;5014117;28;20184;-82
2023/06/22 07:58:46;;;;;;;7.72;6.93;;;;;;;31.53;50.39;95330.81;5015356;28;20186;-82
2023/06/22 08:01:12;;;;;;;9.90;7.50;;;;;;;31.17;53.42;95320.50;5015034;28;20205;-82
2023/06/22 08:03:37;;;;;;;13.05;7.53;;;;;;;30.65;51.81;95287.31;5015487;28;20183;-83
2023/06/22 08:06:03;;;;;;;10.50;7.85;;;;;;;30.69;52.48;95315.44;5013780;28;20259;-81
2023/06/22 08:08:28;;;;;;;10.18;7.45;;;;;;;30.86;54.98;95315.38;5014914;28;20183;-82
2023/06/22 08:10:54;;;;;;;11.85;7.60;;;;;;;30.94;52.14;95308.28;5014802;28;20684;-83
2023/06/22 08:13:20;;;;;;;8.30;7.50;;;;;;;31.18;52.70;95321.28;5014888;28;20168;-83
2023/06/22 08:15:45;;;;;;;9.20;7.22;;;;;;;31.21;54.82;95310.56;5014674;28;20200;-83
2023/06/22 08:18:10;;;;;;;8.23;7.28;;;;;;;31.56;53.97;95305.66;5013326;28;20246;-82
2023/06/22 08:20:36;;;;;;;9.90;6.93;;;;;;;31.61;52.31;95294.53;5014648;28;20196;-83
2023/06/22 08:23:05;;;;;;;9.82;7.47;;;;;;;31.85;49.45;95305.56;5014678;28;20629;-82
2023/06/22 08:25:32;;;;;;;12.40;7.03;;;;;;;32.00;50.95;95303.38;5014589;28;20180;-82
2023/06/22 08:27:58;;;;;;;11.18;7.35;;;;;;;31.92;51.55;95296.84;5015629;28;20175;-81
2023/06/22 08:30:23;;;;;;;10.82;8.32;;;;;;;31.82;52.31;95281.75;5014652;28;20562;-82
2023/06/22 08:32:49;;;;;;;9.00;7.03;;;;;;;31.84;52.66;95293.06;5014331;28;20191;-82
2023/06/22 08:35:14;;;;;;;7.93;6.80;;;;;;;31.81;51.42;95274.69;5014569;28;20173;-82
2023/06/22 08:37:40;;;;;;;11.02;6.70;;;;;;;31.88;50.84;95300.59;5014185;28;21071;-83
2023/06/22 08:40:09;;;;;;;8.15;7.30;;;;;;;31.74;52.30;95290.75;5014098;28;20260;-82
2023/06/22 08:42:35;;;;;;;11.68;7.07;;;;;;;31.73;51.78;95302.00;5013022;28;20176;-83
2023/06/22 08:45:00;;;;;;;18.17;8.20;;;;;;;31.44;53.44;95287.31;5014166;28;20172;-84
2023/06/22 08:47:27;;;;;;;9.05;6.80;;;;;;;31.31;53.31;95268.53;5014211;28;20191;-83
2023/06/22 08:49:53;;;;;;;7.35;6.50;;;;;;;31.63;53.00;95302.41;5027643;28;20188;-83
2023/06/22 08:52:19;;;;;;;10.43;6.70;;;;;;;31.70;52.06;95281.69;5014126;28;20176;-83
2023/06/22 08:54:45;;;;;;;7.35;6.35;;;;;;;31.90;48.93;95281.97;5013999;28;20268;-84
2023/06/22 08:57:11;;;;;;;7.80;6.47;;;;;;;31.79;49.77;95244.25;5014065;28;20634;-83
2023/06/22 08:59:36;;;;;;;7.78;6.22;;;;;;;32.14;51.22;95287.50;5013995;28;20275;-82
2023/06/22 09:02:01;;;;;;;8.32;6.70;;;;;;;32.11;46.55;95264.44;5013869;28;20251;-82
2023/06/22 09:04:27;;;;;;;7.05;6.00;;;;;;;32.22;49.19;95278.47;5012751;28;20211;-82
2023/06/22 09:06:52;;;;;;;7.65;6.32;;;;;;;31.94;46.39;95256.44;5013923;28;20181;-82
2023/06/22 09:09:18;;;;;;;7.15;6.05;;;;;;;31.92;46.57;95280.50;5012657;28;20267;-82
2023/06/22 09:11:44;;;;;;;11.27;6.13;;;;;;;31.98;46.86;95281.09;5013873;28;20234;-82
2023/06/22 09:14:11;;;;;;;8.25;5.88;;;;;;;32.03;47.86;95280.88;5013787;28;20172;-82
2023/06/22 09:16:36;;;;;;;8.55;6.85;;;;;;;32.26;48.86;95279.34;5013668;28;20188;-82
2023/06/22 09:19:02;;;;;;;8.48;6.00;;;;;;;32.35;47.46;95279.25;5013623;28;20533;-80
2023/06/22 09:21:27;;;;;;;12.15;6.30;;;;;;;32.15;44.91;95257.19;5013589;28;20200;-80
2023/06/22 09:23:53;;;;;;;6.72;6.03;;;;;;;31.94;46.18;95250.19;5013680;28;20172;-80
2023/06/22 09:26:19;;;;;;;11.75;6.70;;;;;;;31.88;52.62;95263.25;5013579;28;20187;-81
2023/06/22 09:28:44;;;;;;;10.60;6.05;;;;;;;31.96;50.84;95280.63;5013349;28;20187;-81
2023/06/22 09:31:10;;;;;;;6.43;5.63;;;;;;;31.97;49.52;95280.28;5013432;28;20176;-82
2023/06/22 09:33:37;;;;;;;8.55;6.78;;;;;;;31.86;46.97;95285.38;5013558;28;20184;-82
2023/06/22 09:36:07;;;;;;;8.60;6.60;;;;;;;31.84;49.69;95279.44;5013291;28;20184;-82
2023/06/22 09:38:34;;;;;;;7.38;6.60;;;;;;;31.92;50.19;95285.16;5013198;28;20181;-82
2023/06/22 09:41:00;;;;;;;9.15;6.53;;;;;;;31.93;52.33;95287.53;5012725;28;20193;-82
2023/06/22 09:43:25;;;;;;;11.52;7.40;;;;;;;31.79;48.04;95273.44;5011794;28;20183;-82
2023/06/22 09:45:51;;;;;;;9.05;6.28;;;;;;;31.80;49.86;95267.66;5011564;28;20180;-82
2023/06/22 09:48:16;;;;;;;11.20;6.47;;;;;;;31.79;49.56;95278.88;5012899;28;20259;-81
2023/06/22 09:50:42;;;;;;;11.00;7.28;;;;;;;31.74;50.05;95271.69;5012409;28;20176;-81
2023/06/22 09:53:07;;;;;;;9.75;7.25;;;;;;;31.73;48.15;95269.31;5012779;28;20310;-82
2023/06/22 09:55:32;;;;;;;9.32;7.18;;;;;;;31.75;48.46;95267.03;5012750;28;20164;-81
2023/06/22 09:57:58;;;;;;;10.18;6.72;;;;;;;31.65;48.30;95259.31;5013186;28;20184;-82
2023/06/22 10:00:23;;;;;;;9.13;6.60;;;;;;;31.70;51.58;95265.34;5012516;28;20200;-81
2023/06/22 10:02:50;;;;;;;8.35;6.55;;;;;;;31.69;51.12;95252.84;5012733;28;20263;-82
2023/06/22 10:05:15;;;;;;;8.68;6.47;;;;;;;31.77;50.51;95257.41;5012793;28;20642;-81
2023/06/22 10:07:43;;;;;;;9.38;6.70;;;;;;;31.79;49.87;95260.59;5012454;28;20315;-81
2023/06/22 10:10:09;;;;;;;13.25;7.07;;;;;;;31.29;49.03;95238.94;5012694;28;20319;-81
2023/06/22 10:12:34;;;;;;;7.65;6.72;;;;;;;31.30;52.33;95259.56;5013037;28;20658;-81
2023/06/22 10:15:00;;;;;;;12.18;7.40;;;;;;;31.33;53.65;95253.44;5012726;28;20251;-81
2023/06/22 10:17:25;;;;;;;10.63;6.90;;;;;;;31.36;51.08;95257.44;5012035;28;20172;-82
2023/06/22 10:19:51;;;;;;;10.48;7.28;;;;;;;31.36;50.49;95257.44;5012095;28;20191;-82
2023/06/22 10:22:16;;;;;;;9.57;6.60;;;;;;;31.19;47.83;95257.56;5012572;28;20188;-83
2023/06/22 10:24:44;;;;;;;9.38;6.70;;;;;;;31.03;49.47;95239.09;5012364;28;20178;-82
2023/06/22 10:27:13;;;;;;;7.88;6.75;;;;;;;31.14;50.44;95244.19;5012498;28;20289;-82
2023/06/22 10:29:39;;;;;;;10.60;6.25;;;;;;;30.86;50.02;95205.78;5011281;28;20176;-81
2023/06/22 10:32:05;;;;;;;7.10;6.40;;;;;;;31.06;50.44;95241.13;5012211;28;20168;-81
2023/06/22 10:34:30;;;;;;;6.80;5.95;;;;;;;31.06;47.76;95260.19;5012131;28;20238;-81
2023/06/22 10:36:56;;;;;;;8.00;6.78;;;;;;;31.11;48.00;95246.44;5011993;28;20176;-81
2023/06/22 10:39:21;;;;;;;8.98;6.47;;;;;;;31.07;49.63;95244.69;5011920;28;20255;-81
2023/06/22 10:41:46;;;;;;;9.18;6.72;;;;;;;31.00;50.92;95237.03;5012180;28;20196;-82
2023/06/22 10:44:13;;;;;;;8.00;6.88;;;;;;;31.05;50.23;95244.97;5012018;28;20176;-81
2023/06/22 10:46:38;;;;;;;9.85;6.13;;;;;;;30.94;50.17;95232.91;5011958;28;20260;-81
2023/06/22 10:49:04;;;;;;;16.85;7.47;;;;;;;31.06;51.84;95230.25;5012030;28;20252;-82
2023/06/22 10:51:32;;;;;;;8.75;7.13;;;;;;;31.17;50.04;95229.91;5011703;28;20183;-82
2023/06/22 10:53:57;;;;;;;10.23;7.30;;;;;;;31.17;49.45;95225.25;5010485;28;20266;-81
2023/06/22 10:56:23;;;;;;;10.70;6.40;;;;;;;31.22;49.63;95224.28;5011916;28;20176;-81
2023/06/22 10:58:49;;;;;;;7.80;6.47;;;;;;;31.19;49.94;95219.47;5011541;28;20184;-83
2023/06/22 11:01:15;;;;;;;8.85;6.45;;;;;;;31.03;48.92;95197.50;5011612;28;20354;-81
2023/06/22 11:03:40;;;;;;;8.68;6.47;;;;;;;31.15;44.71;95226.69;5011675;28;20646;-82
2023/06/22 11:06:06;;;;;;;7.40;6.10;;;;;;;31.07;45.64;95223.72;5011917;28;20275;-81
2023/06/22 11:08:31;;;;;;;7.05;5.85;;;;;;;31.10;46.35;95225.00;5012053;28;20179;-81
2023/06/22 11:10:57;;;;;;;18.40;6.57;;;;;;;31.12;48.44;95222.75;5011482;28;20183;-81
2023/06/22 11:13:22;;;;;;;8.05;6.35;;;;;;;31.18;48.37;95218.69;5011499;28;20270;-80
2023/06/22 11:15:47;;;;;;;7.43;6.65;;;;;;;31.22;46.13;95213.38;5011514;28;20660;-81
2023/06/22 11:18:13;;;;;;;7.93;6.55;;;;;;;31.07;45.29;95187.56;5010312;28;20172;-81
2023/06/22 11:20:38;;;;;;;12.77;6.50;;;;;;;31.19;47.86;95208.59;5011504;28;20200;-81
2023/06/22 11:23:06;;;;;;;9.30;6.72;;;;;;;31.18;47.66;95207.78;5011386;28;20242;-81